Gassaway, WV

6:24 PM EDT on July 26, 2016 (GMT -0400)
Frame Circle | | Change Station
Active Advisory: Flash Flood Watch

Elev 890 ft 38.66 °N, 80.75 °W | Updated 11 seconds ago

Rain
Rain
75.9 °F
Feels Like 76 °F
N
0.0
Wind Variable Wind from South
Gusts 2.0 mph

Today
High -- | Low -- °F
--% Chance of Precip.
Yesterday
High -- | Low -- °F
Precip. -- in
Pressure 30.05 in
Visibility 2.0 miles
Clouds
Heat Index 76 °F
Dew Point 72 °F
Humidity 89%
Rainfall 0.51 in
Snow Depth Not available.
6:19 AM 8:39 PM
Waning Gibbous, 50% visible
METAR KW22 262215Z AUTO 20006KT 2SM BR 23/23 A3005 RMK AO2 PWINO
Pressure 30.05 in
Visibility 2.0 miles
Clouds
Heat Index 76 °F
Dew Point 72 °F
Humidity 89%
Rainfall 0.51 in
Snow Depth Not available.
6:19 AM 8:39 PM
Waning Gibbous, 50% visible
METAR KW22 262215Z AUTO 20006KT 2SM BR 23/23 A3005 RMK AO2 PWINO

10-Day Weather Forecast

Almanac

Astronomy

Jul. 26, 2016 Rise Set
Actual Time
Civil Twilight
Nautical Twilight
Astronomical Twilight
Moon
Length of Visible Light
Length of Day
Tomorrow will be .
, % of the Moon is Illuminated

Today's Extremes

State Highs State Lows

Community

WunderPhotos

Upload Photos

1,927,717 photos uploaded!

WunderBlog® & News

Nearby

Air Quality

  Air Quality AQ Index Pollutant
Not available.

Snow Depth

Station Depth Elevation

Earthquake Activity

City Distance Mag. Time & Date
Minimum magnitude displayed is 2.5.

Coastal Water Temperatures

Place Temperature

Stations

Nearby Weather Stations

Station Location Temp. Windchill Dew Point Humidity Wind Precip. Elev Updated Type
                   

Watches & Warnings

Flash Flood Watch
Issued: 3:00 PM EDT Jul. 26, 2016 – National Weather Service

... Flash Flood Watch in effect until 10 PM EDT this evening...

The National Weather Service in Charleston has issued a

* Flash Flood Watch for portions of northeast Kentucky...
southeast Ohio and West Virginia... including the following
areas... in northeast Kentucky... Greenup. In southeast Ohio...
Athens... Gallia... Jackson OH... Lawrence OH... Meigs... Vinton
and Washington. In West Virginia... Barbour... Braxton...
Calhoun... Doddridge... Gilmer... Harrison... Jackson WV... Lewis...
   Mason... Pleasants... Randolph... Ritchie... Roane... Taylor...
Tyler... Upshur... Wirt and wood.

* Until 10 PM EDT this evening

* thunderstorms, with very heavy downpours. Will be moving through
the area. These storms have had a history of producing 1.50 to
2.50 inches of rain in an hour.

* If the rainfall is realalized, some areas could see flash
flooding of small streams and creeks and roads, especially in
low lying and poor drainage areas.

Precautionary/preparedness actions...

A Flash Flood Watch means that conditions may develop that lead
to flash flooding. Flash flooding is a very dangerous situation.

You should monitor later forecasts and be prepared to take action
should flash flood warnings be issued.